AZU5199 SBAQ-SBKP
Flight info
| Callsign | AZU5199 |
|---|---|
| Flight time | 0h 50m |
| Altitude | 7000 |
| Route | MEVUT DCT UTLOT |
| Aircraft | C208/L-SDFGR/C |
Departure
| Time | 2026-05-07 16:25 |
|---|---|
| Airport | Araraquara Airport (SBAQ) |
Arrival
| Time | 2026-05-07 17:16 |
|---|---|
| Airport | Viracopos International Airport (SBKP) |
| Time | Latitude | Longitude | Altitude | Speed | Heading |
|---|---|---|---|---|---|
| 2026-05-07 16:11 | -21.80595 | -48.13922 | 2279 ft | 0 kts | 60° |
| 2026-05-07 16:15 | -21.80593 | -48.13920 | 2279 ft | 3 kts | 60° |
| 2026-05-07 16:15 | -21.80563 | -48.13866 | 2281 ft | 14 kts | 56° |
| 2026-05-07 16:15 | -21.80517 | -48.13759 | 2282 ft | 14 kts | 129° |
| 2026-05-07 16:16 | -21.80586 | -48.13710 | 2283 ft | 13 kts | 150° |
| 2026-05-07 16:16 | -21.80681 | -48.13652 | 2296 ft | 19 kts | 150° |
| 2026-05-07 16:16 | -21.80804 | -48.13578 | 2293 ft | 16 kts | 150° |
| 2026-05-07 16:16 | -21.80869 | -48.13533 | 2301 ft | 10 kts | 146° |
| 2026-05-07 16:17 | -21.80943 | -48.13479 | 2299 ft | 16 kts | 147° |
| 2026-05-07 16:17 | -21.81058 | -48.13396 | 2308 ft | 23 kts | 146° |
| 2026-05-07 16:17 | -21.81215 | -48.13294 | 2315 ft | 30 kts | 149° |
| 2026-05-07 16:17 | -21.81397 | -48.13174 | 2322 ft | 32 kts | 148° |
| 2026-05-07 16:18 | -21.81593 | -48.13044 | 2326 ft | 30 kts | 147° |
| 2026-05-07 16:18 | -21.81751 | -48.12938 | 2331 ft | 18 kts | 147° |
| 2026-05-07 16:18 | -21.81841 | -48.12834 | 2336 ft | 8 kts | 169° |
| 2026-05-07 16:18 | -21.81848 | -48.12878 | 2335 ft | 0 kts | 334° |
| 2026-05-07 16:20 | -21.81816 | -48.12895 | 2333 ft | 9 kts | 334° |
| 2026-05-07 16:20 | -21.81740 | -48.12944 | 2331 ft | 25 kts | 328° |
| 2026-05-07 16:20 | -21.81485 | -48.13115 | 2323 ft | 59 kts | 328° |
| 2026-05-07 16:20 | -21.81067 | -48.13393 | 2311 ft | 81 kts | 327° |
| 2026-05-07 16:21 | -21.80591 | -48.13745 | 2378 ft | 82 kts | 325° |
| 2026-05-07 16:21 | -21.80116 | -48.14090 | 2428 ft | 84 kts | 323° |
| 2026-05-07 16:21 | -21.79622 | -48.14442 | 2449 ft | 88 kts | 327° |
| 2026-05-07 16:21 | -21.79098 | -48.14791 | 2463 ft | 89 kts | 321° |
| 2026-05-07 16:22 | -21.78615 | -48.15195 | 2423 ft | 92 kts | 319° |
| 2026-05-07 16:22 | -21.78098 | -48.15557 | 2467 ft | 86 kts | 329° |
| 2026-05-07 16:22 | -21.77555 | -48.15846 | 2504 ft | 90 kts | 334° |
| 2026-05-07 16:22 | -21.76980 | -48.16116 | 2537 ft | 94 kts | 338° |
| 2026-05-07 16:23 | -21.76568 | -48.16338 | 2449 ft | 106 kts | 325° |
| 2026-05-07 16:23 | -21.75734 | -48.16900 | 2528 ft | 103 kts | 325° |
| 2026-05-07 16:23 | -21.75343 | -48.17174 | 2595 ft | 99 kts | 317° |
| 2026-05-07 16:23 | -21.75051 | -48.17792 | 2698 ft | 91 kts | 277° |
| 2026-05-07 16:24 | -21.75266 | -48.18586 | 2822 ft | 83 kts | 236° |
| 2026-05-07 16:24 | -21.75569 | -48.18854 | 2818 ft | 89 kts | 214° |
| 2026-05-07 16:24 | -21.76204 | -48.19042 | 2797 ft | 104 kts | 193° |
| 2026-05-07 16:24 | -21.76902 | -48.19417 | 2753 ft | 121 kts | 232° |
| 2026-05-07 16:25 | -21.77485 | -48.20501 | 2794 ft | 131 kts | 242° |
| 2026-05-07 16:25 | -21.77812 | -48.21073 | 2854 ft | 134 kts | 242° |
| 2026-05-07 16:25 | -21.78301 | -48.21941 | 2932 ft | 139 kts | 242° |
| 2026-05-07 16:25 | -21.78807 | -48.22838 | 3053 ft | 140 kts | 241° |
| 2026-05-07 16:26 | -21.79321 | -48.23736 | 3177 ft | 141 kts | 242° |
| 2026-05-07 16:26 | -21.79834 | -48.24632 | 3303 ft | 141 kts | 242° |
| 2026-05-07 16:26 | -21.80337 | -48.25511 | 3429 ft | 139 kts | 241° |
| 2026-05-07 16:26 | -21.80851 | -48.26403 | 3555 ft | 141 kts | 241° |
| 2026-05-07 16:27 | -21.81366 | -48.27307 | 3680 ft | 141 kts | 242° |
| 2026-05-07 16:27 | -21.81875 | -48.28195 | 3797 ft | 140 kts | 241° |
| 2026-05-07 16:27 | -21.82384 | -48.29079 | 3921 ft | 139 kts | 242° |
| 2026-05-07 16:27 | -21.82881 | -48.29955 | 4053 ft | 136 kts | 242° |
| 2026-05-07 16:28 | -21.83389 | -48.30846 | 4182 ft | 141 kts | 242° |
| 2026-05-07 16:28 | -21.83907 | -48.31752 | 4298 ft | 144 kts | 243° |
| 2026-05-07 16:28 | -21.84427 | -48.32677 | 4428 ft | 144 kts | 242° |
| 2026-05-07 16:28 | -21.84951 | -48.33578 | 4548 ft | 139 kts | 242° |
| 2026-05-07 16:29 | -21.85455 | -48.34457 | 4667 ft | 137 kts | 242° |
| 2026-05-07 16:29 | -21.86187 | -48.35087 | 4788 ft | 139 kts | 192° |
| 2026-05-07 16:29 | -21.87142 | -48.34997 | 4917 ft | 140 kts | 157° |
| 2026-05-07 16:29 | -21.88059 | -48.34642 | 5044 ft | 143 kts | 158° |
| 2026-05-07 16:30 | -21.89014 | -48.34299 | 5168 ft | 145 kts | 158° |
| 2026-05-07 16:30 | -21.89966 | -48.33950 | 5302 ft | 144 kts | 157° |
| 2026-05-07 16:30 | -21.90916 | -48.33596 | 5426 ft | 145 kts | 157° |
| 2026-05-07 16:30 | -21.91864 | -48.33252 | 5556 ft | 146 kts | 158° |
| 2026-05-07 16:31 | -21.92841 | -48.32898 | 5683 ft | 148 kts | 157° |
| 2026-05-07 16:31 | -21.93818 | -48.32538 | 5810 ft | 148 kts | 158° |
| 2026-05-07 16:31 | -21.94796 | -48.32185 | 5930 ft | 149 kts | 157° |
| 2026-05-07 16:31 | -21.95772 | -48.31828 | 6058 ft | 147 kts | 156° |
| 2026-05-07 16:32 | -21.96752 | -48.31469 | 6186 ft | 149 kts | 157° |
| 2026-05-07 16:32 | -21.97733 | -48.31107 | 6310 ft | 152 kts | 158° |
| 2026-05-07 16:32 | -21.98730 | -48.30744 | 6430 ft | 149 kts | 157° |
| 2026-05-07 16:32 | -21.99714 | -48.30382 | 6559 ft | 149 kts | 157° |
| 2026-05-07 16:33 | -22.00688 | -48.30027 | 6682 ft | 150 kts | 158° |
| 2026-05-07 16:33 | -22.01676 | -48.29669 | 6803 ft | 147 kts | 157° |
| 2026-05-07 16:33 | -22.02635 | -48.29311 | 6927 ft | 147 kts | 157° |
| 2026-05-07 16:33 | -22.03606 | -48.28955 | 6999 ft | 150 kts | 157° |
| 2026-05-07 16:34 | -22.04624 | -48.28585 | 7001 ft | 157 kts | 158° |
| 2026-05-07 16:34 | -22.05668 | -48.28205 | 7011 ft | 162 kts | 158° |
| 2026-05-07 16:34 | -22.06751 | -48.27808 | 7014 ft | 166 kts | 158° |
| 2026-05-07 16:34 | -22.07861 | -48.27402 | 7005 ft | 169 kts | 158° |
| 2026-05-07 16:35 | -22.08963 | -48.26998 | 7008 ft | 168 kts | 158° |
| 2026-05-07 16:35 | -22.10081 | -48.26591 | 7006 ft | 169 kts | 158° |
| 2026-05-07 16:35 | -22.11183 | -48.26186 | 7009 ft | 169 kts | 158° |
| 2026-05-07 16:35 | -22.12300 | -48.25773 | 7009 ft | 169 kts | 158° |
| 2026-05-07 16:36 | -22.13418 | -48.25362 | 7013 ft | 170 kts | 158° |
| 2026-05-07 16:36 | -22.14545 | -48.24950 | 7001 ft | 170 kts | 158° |
| 2026-05-07 16:36 | -22.15657 | -48.24544 | 7002 ft | 170 kts | 158° |
| 2026-05-07 16:36 | -22.16772 | -48.24136 | 7001 ft | 169 kts | 158° |
| 2026-05-07 16:37 | -22.17877 | -48.23729 | 7004 ft | 169 kts | 158° |
| 2026-05-07 16:37 | -22.18994 | -48.23319 | 7008 ft | 170 kts | 158° |
| 2026-05-07 16:37 | -22.20124 | -48.22905 | 7007 ft | 171 kts | 158° |
| 2026-05-07 16:37 | -22.21261 | -48.22488 | 7006 ft | 172 kts | 158° |
| 2026-05-07 16:38 | -22.22376 | -48.22079 | 6995 ft | 169 kts | 158° |
| 2026-05-07 16:38 | -22.23485 | -48.21673 | 7000 ft | 168 kts | 158° |
| 2026-05-07 16:38 | -22.24591 | -48.21264 | 6997 ft | 165 kts | 156° |
| 2026-05-07 16:38 | -22.25510 | -48.20584 | 6991 ft | 159 kts | 122° |
| 2026-05-07 16:39 | -22.26157 | -48.19619 | 6996 ft | 160 kts | 120° |
| 2026-05-07 16:39 | -22.26832 | -48.18652 | 6990 ft | 160 kts | 122° |
| 2026-05-07 16:39 | -22.27508 | -48.17706 | 7003 ft | 161 kts | 122° |
| 2026-05-07 16:39 | -22.28190 | -48.16739 | 7002 ft | 161 kts | 121° |
| 2026-05-07 16:40 | -22.28855 | -48.15780 | 7000 ft | 162 kts | 121° |
| 2026-05-07 16:40 | -22.29539 | -48.14807 | 7005 ft | 163 kts | 122° |
| 2026-05-07 16:40 | -22.30239 | -48.13823 | 7006 ft | 165 kts | 122° |
| 2026-05-07 16:40 | -22.30915 | -48.12851 | 6994 ft | 162 kts | 121° |
| 2026-05-07 16:41 | -22.31592 | -48.11878 | 7000 ft | 161 kts | 121° |
| 2026-05-07 16:41 | -22.32264 | -48.10916 | 6999 ft | 162 kts | 121° |
| 2026-05-07 16:41 | -22.32951 | -48.09940 | 6997 ft | 164 kts | 121° |
| 2026-05-07 16:41 | -22.33643 | -48.08946 | 7002 ft | 165 kts | 121° |
| 2026-05-07 16:42 | -22.34335 | -48.07966 | 7002 ft | 165 kts | 122° |
| 2026-05-07 16:42 | -22.35031 | -48.06969 | 6997 ft | 165 kts | 121° |
| 2026-05-07 16:42 | -22.35716 | -48.05990 | 7001 ft | 165 kts | 121° |
| 2026-05-07 16:42 | -22.36406 | -48.05001 | 6990 ft | 163 kts | 121° |
| 2026-05-07 16:43 | -22.37076 | -48.04046 | 6995 ft | 159 kts | 121° |
| 2026-05-07 16:43 | -22.37746 | -48.03086 | 7002 ft | 159 kts | 121° |
| 2026-05-07 16:43 | -22.38416 | -48.02127 | 7004 ft | 162 kts | 121° |
| 2026-05-07 16:43 | -22.39109 | -48.01139 | 7009 ft | 166 kts | 122° |
| 2026-05-07 16:44 | -22.39810 | -48.00137 | 7000 ft | 164 kts | 121° |
| 2026-05-07 16:44 | -22.40484 | -47.99171 | 6990 ft | 161 kts | 121° |
| 2026-05-07 16:44 | -22.41158 | -47.98202 | 6999 ft | 161 kts | 121° |
| 2026-05-07 16:44 | -22.41836 | -47.97233 | 6992 ft | 160 kts | 122° |
| 2026-05-07 16:45 | -22.42496 | -47.96292 | 7003 ft | 158 kts | 121° |
| 2026-05-07 16:45 | -22.43164 | -47.95333 | 7004 ft | 161 kts | 122° |
| 2026-05-07 16:45 | -22.43837 | -47.94374 | 7002 ft | 159 kts | 122° |
| 2026-05-07 16:45 | -22.44506 | -47.93412 | 7007 ft | 159 kts | 122° |
| 2026-05-07 16:46 | -22.45170 | -47.92461 | 7006 ft | 157 kts | 122° |
| 2026-05-07 16:46 | -22.45825 | -47.91517 | 7016 ft | 160 kts | 121° |
| 2026-05-07 16:46 | -22.46504 | -47.90550 | 7014 ft | 162 kts | 122° |
| 2026-05-07 16:46 | -22.47186 | -47.89577 | 7012 ft | 162 kts | 122° |
| 2026-05-07 16:47 | -22.47913 | -47.88628 | 7017 ft | 165 kts | 126° |
| 2026-05-07 16:47 | -22.48623 | -47.87662 | 7014 ft | 166 kts | 123° |
| 2026-05-07 16:47 | -22.49346 | -47.86685 | 7012 ft | 165 kts | 124° |
| 2026-05-07 16:47 | -22.50065 | -47.85727 | 7016 ft | 164 kts | 124° |
| 2026-05-07 16:48 | -22.50791 | -47.84762 | 7012 ft | 165 kts | 124° |
| 2026-05-07 16:48 | -22.51510 | -47.83803 | 7011 ft | 163 kts | 124° |
| 2026-05-07 16:48 | -22.52216 | -47.82864 | 7012 ft | 163 kts | 124° |
| 2026-05-07 16:48 | -22.52933 | -47.81905 | 7010 ft | 163 kts | 124° |
| 2026-05-07 16:49 | -22.53654 | -47.80946 | 7015 ft | 165 kts | 124° |
| 2026-05-07 16:49 | -22.54372 | -47.79995 | 7004 ft | 164 kts | 124° |
| 2026-05-07 16:49 | -22.55093 | -47.79037 | 7009 ft | 163 kts | 124° |
| 2026-05-07 16:49 | -22.55809 | -47.78082 | 7005 ft | 163 kts | 124° |
| 2026-05-07 16:50 | -22.56525 | -47.77125 | 7014 ft | 164 kts | 124° |
| 2026-05-07 16:50 | -22.57251 | -47.76160 | 7012 ft | 165 kts | 124° |
| 2026-05-07 16:50 | -22.57969 | -47.75203 | 7013 ft | 165 kts | 124° |
| 2026-05-07 16:50 | -22.58698 | -47.74233 | 7014 ft | 166 kts | 124° |
| 2026-05-07 16:51 | -22.59415 | -47.73281 | 7004 ft | 164 kts | 124° |
| 2026-05-07 16:51 | -22.60136 | -47.72318 | 7005 ft | 164 kts | 124° |
| 2026-05-07 16:51 | -22.60855 | -47.71360 | 7012 ft | 163 kts | 124° |
| 2026-05-07 16:51 | -22.61563 | -47.70412 | 7003 ft | 164 kts | 124° |
| 2026-05-07 16:52 | -22.62284 | -47.69457 | 7004 ft | 163 kts | 124° |
| 2026-05-07 16:52 | -22.62992 | -47.68511 | 7008 ft | 163 kts | 124° |
| 2026-05-07 16:52 | -22.63715 | -47.67543 | 7014 ft | 165 kts | 124° |
| 2026-05-07 16:52 | -22.64445 | -47.66569 | 7006 ft | 165 kts | 124° |
| 2026-05-07 16:53 | -22.65162 | -47.65613 | 7003 ft | 163 kts | 124° |
| 2026-05-07 16:53 | -22.65875 | -47.64667 | 7002 ft | 163 kts | 124° |
| 2026-05-07 16:53 | -22.66589 | -47.63704 | 7002 ft | 164 kts | 123° |
| 2026-05-07 16:53 | -22.67308 | -47.62745 | 7009 ft | 164 kts | 124° |
| 2026-05-07 16:54 | -22.68027 | -47.61793 | 7002 ft | 165 kts | 124° |
| 2026-05-07 16:54 | -22.68748 | -47.60826 | 7010 ft | 165 kts | 124° |
| 2026-05-07 16:54 | -22.69480 | -47.59851 | 7010 ft | 165 kts | 124° |
| 2026-05-07 16:54 | -22.70192 | -47.58900 | 7011 ft | 163 kts | 124° |
| 2026-05-07 16:55 | -22.70860 | -47.57896 | 7001 ft | 162 kts | 117° |
| 2026-05-07 16:55 | -22.71487 | -47.56881 | 7007 ft | 162 kts | 120° |
| 2026-05-07 16:55 | -22.72122 | -47.55889 | 7004 ft | 162 kts | 119° |
| 2026-05-07 16:55 | -22.72755 | -47.54875 | 7005 ft | 162 kts | 120° |
| 2026-05-07 16:56 | -22.73394 | -47.53860 | 7004 ft | 162 kts | 119° |
| 2026-05-07 16:56 | -22.74027 | -47.52848 | 7002 ft | 164 kts | 119° |
| 2026-05-07 16:56 | -22.75318 | -47.50797 | 7009 ft | 164 kts | 119° |
| 2026-05-07 16:57 | -22.75955 | -47.49773 | 7010 ft | 164 kts | 119° |
| 2026-05-07 16:57 | -22.76592 | -47.48752 | 7010 ft | 164 kts | 119° |
| 2026-05-07 16:57 | -22.77240 | -47.47725 | 7005 ft | 164 kts | 119° |
| 2026-05-07 16:57 | -22.77875 | -47.46708 | 7004 ft | 163 kts | 119° |
| 2026-05-07 16:58 | -22.78511 | -47.45686 | 7012 ft | 164 kts | 119° |
| 2026-05-07 16:58 | -22.79148 | -47.44670 | 7000 ft | 164 kts | 119° |
| 2026-05-07 16:58 | -22.79787 | -47.43653 | 7010 ft | 161 kts | 119° |
| 2026-05-07 16:58 | -22.80420 | -47.42640 | 7012 ft | 162 kts | 119° |
| 2026-05-07 16:59 | -22.81045 | -47.41637 | 7006 ft | 162 kts | 119° |
| 2026-05-07 16:59 | -22.81675 | -47.40631 | 7005 ft | 161 kts | 119° |
| 2026-05-07 16:59 | -22.82308 | -47.39617 | 7004 ft | 161 kts | 119° |
| 2026-05-07 16:59 | -22.82932 | -47.38622 | 7003 ft | 161 kts | 119° |
| 2026-05-07 17:00 | -22.83566 | -47.37606 | 7001 ft | 162 kts | 119° |
| 2026-05-07 17:00 | -22.84193 | -47.36604 | 7002 ft | 161 kts | 119° |
| 2026-05-07 17:00 | -22.84941 | -47.35696 | 7006 ft | 164 kts | 138° |
| 2026-05-07 17:00 | -22.85852 | -47.34947 | 7012 ft | 163 kts | 138° |
| 2026-05-07 17:01 | -22.86752 | -47.34182 | 7012 ft | 165 kts | 138° |
| 2026-05-07 17:01 | -22.87650 | -47.33410 | 7006 ft | 165 kts | 137° |
| 2026-05-07 17:01 | -22.88551 | -47.32633 | 7010 ft | 165 kts | 137° |
| 2026-05-07 17:01 | -22.89459 | -47.31859 | 7010 ft | 166 kts | 137° |
| 2026-05-07 17:02 | -22.90361 | -47.31079 | 7014 ft | 166 kts | 138° |
| 2026-05-07 17:02 | -22.91269 | -47.30304 | 6998 ft | 167 kts | 139° |
| 2026-05-07 17:02 | -22.92183 | -47.29525 | 6995 ft | 165 kts | 138° |
| 2026-05-07 17:02 | -22.93063 | -47.28760 | 6989 ft | 164 kts | 138° |
| 2026-05-07 17:03 | -22.93959 | -47.27989 | 6992 ft | 165 kts | 138° |
| 2026-05-07 17:03 | -22.94860 | -47.27216 | 6991 ft | 165 kts | 138° |
| 2026-05-07 17:03 | -22.95746 | -47.26451 | 6989 ft | 163 kts | 138° |
| 2026-05-07 17:03 | -22.96636 | -47.25686 | 6989 ft | 163 kts | 139° |
| 2026-05-07 17:04 | -22.97522 | -47.24926 | 6985 ft | 162 kts | 139° |
| 2026-05-07 17:04 | -22.98407 | -47.24165 | 6987 ft | 162 kts | 139° |
| 2026-05-07 17:04 | -22.99282 | -47.23410 | 6987 ft | 162 kts | 139° |
| 2026-05-07 17:04 | -23.00167 | -47.22649 | 6986 ft | 162 kts | 139° |
| 2026-05-07 17:05 | -23.01051 | -47.21888 | 6987 ft | 162 kts | 139° |
| 2026-05-07 17:05 | -23.01642 | -47.21379 | 6985 ft | 163 kts | 138° |
| 2026-05-07 17:05 | -23.02775 | -47.20402 | 6982 ft | 162 kts | 139° |
| 2026-05-07 17:05 | -23.03669 | -47.19635 | 6987 ft | 163 kts | 139° |
| 2026-05-07 17:06 | -23.04553 | -47.18875 | 6988 ft | 164 kts | 139° |
| 2026-05-07 17:06 | -23.05448 | -47.18104 | 6986 ft | 164 kts | 139° |
| 2026-05-07 17:06 | -23.06344 | -47.17330 | 6989 ft | 164 kts | 139° |
| 2026-05-07 17:06 | -23.07225 | -47.16569 | 6984 ft | 163 kts | 139° |
| 2026-05-07 17:07 | -23.08115 | -47.15803 | 6988 ft | 164 kts | 139° |
| 2026-05-07 17:07 | -23.09006 | -47.15035 | 6982 ft | 163 kts | 138° |
| 2026-05-07 17:07 | -23.09895 | -47.14265 | 6986 ft | 164 kts | 139° |
| 2026-05-07 17:07 | -23.10790 | -47.13496 | 6985 ft | 164 kts | 139° |
| 2026-05-07 17:08 | -23.11690 | -47.12718 | 6911 ft | 170 kts | 139° |
| 2026-05-07 17:08 | -23.12630 | -47.11910 | 6771 ft | 174 kts | 139° |
| 2026-05-07 17:08 | -23.13593 | -47.11083 | 6602 ft | 177 kts | 139° |
| 2026-05-07 17:08 | -23.14551 | -47.10253 | 6502 ft | 176 kts | 139° |
| 2026-05-07 17:09 | -23.15495 | -47.09436 | 6495 ft | 170 kts | 139° |
| 2026-05-07 17:09 | -23.16326 | -47.08556 | 6484 ft | 164 kts | 116° |
| 2026-05-07 17:09 | -23.16582 | -47.07384 | 6483 ft | 158 kts | 83° |
| 2026-05-07 17:09 | -23.16241 | -47.06278 | 6389 ft | 157 kts | 52° |
| 2026-05-07 17:10 | -23.15729 | -47.05720 | 6275 ft | 159 kts | 35° |
| 2026-05-07 17:10 | -23.14541 | -47.04740 | 6056 ft | 164 kts | 36° |
| 2026-05-07 17:10 | -23.13932 | -47.04221 | 5907 ft | 166 kts | 36° |
| 2026-05-07 17:10 | -23.12712 | -47.03185 | 5584 ft | 170 kts | 36° |
| 2026-05-07 17:11 | -23.12092 | -47.02657 | 5410 ft | 171 kts | 36° |
| 2026-05-07 17:11 | -23.11140 | -47.01875 | 5160 ft | 171 kts | 31° |
| 2026-05-07 17:11 | -23.10082 | -47.01584 | 4838 ft | 150 kts | 357° |
| 2026-05-07 17:11 | -23.09141 | -47.01898 | 4443 ft | 140 kts | 330° |
| 2026-05-07 17:12 | -23.08452 | -47.02629 | 4058 ft | 139 kts | 310° |
| 2026-05-07 17:12 | -23.07892 | -47.03443 | 3794 ft | 127 kts | 311° |
| 2026-05-07 17:12 | -23.07392 | -47.04153 | 3701 ft | 112 kts | 311° |
| 2026-05-07 17:12 | -23.06934 | -47.04802 | 3558 ft | 109 kts | 311° |
| 2026-05-07 17:13 | -23.06477 | -47.05437 | 3424 ft | 105 kts | 312° |
| 2026-05-07 17:13 | -23.06022 | -47.06070 | 3291 ft | 106 kts | 311° |
| 2026-05-07 17:13 | -23.05562 | -47.06709 | 3178 ft | 108 kts | 312° |
| 2026-05-07 17:13 | -23.05109 | -47.07343 | 3078 ft | 108 kts | 311° |
| 2026-05-07 17:14 | -23.04646 | -47.07991 | 2977 ft | 109 kts | 311° |
| 2026-05-07 17:14 | -23.04166 | -47.08653 | 2887 ft | 113 kts | 311° |
| 2026-05-07 17:14 | -23.03670 | -47.09347 | 2795 ft | 119 kts | 311° |
| 2026-05-07 17:14 | -23.03182 | -47.10023 | 2688 ft | 109 kts | 310° |
| 2026-05-07 17:15 | -23.02750 | -47.10682 | 2528 ft | 103 kts | 310° |
| 2026-05-07 17:15 | -23.02343 | -47.11276 | 2410 ft | 93 kts | 311° |
| 2026-05-07 17:15 | -23.01945 | -47.11792 | 2291 ft | 86 kts | 313° |
| 2026-05-07 17:15 | -23.01580 | -47.12290 | 2192 ft | 84 kts | 311° |
| 2026-05-07 17:16 | -23.01218 | -47.12790 | 2161 ft | 81 kts | 308° |
| 2026-05-07 17:16 | -23.00904 | -47.13227 | 2155 ft | 61 kts | 308° |
| 2026-05-07 17:16 | -23.00774 | -47.13444 | 2153 ft | 16 kts | 291° |
| 2026-05-07 17:16 | -23.00751 | -47.13543 | 2150 ft | 13 kts | 281° |
| 2026-05-07 17:17 | -23.00747 | -47.13566 | 2154 ft | 0 kts | 278° |
| 2026-05-07 17:17 | -23.00746 | -47.13571 | 2154 ft | 1 kts | 278° |
| 2026-05-07 17:17 | -23.00746 | -47.13578 | 2154 ft | 0 kts | 278° |
| 2026-05-07 17:18 | -23.00745 | -47.13619 | 2155 ft | 11 kts | 251° |
| 2026-05-07 17:18 | -23.00828 | -47.13694 | 2152 ft | 21 kts | 217° |
| 2026-05-07 17:19 | -23.00915 | -47.13790 | 2156 ft | 11 kts | 211° |
| 2026-05-07 17:19 | -23.00974 | -47.13746 | 2156 ft | 7 kts | 127° |
| 2026-05-07 17:19 | -23.00979 | -47.13739 | 2156 ft | 0 kts | 130° |